• Join FlightAware (Why Join?)
  • Login
  • US Flag 
12:24AM EDT


 

Airport Tracker/Info


-or-


 

Live Flight TrackerFlight Track Log ✈ N53NW ✈ 24-Aug-2013 ✈ KJAN - KMSY

Flight Track Log - Related Links

Times and Time Zones

All times are in EDT time to prevent confusion due to time zone crossing. See the N53NW flight status page for this flight to view local times or setup timezone preferences in your user account.

Time Position Orientation Groundspeed Altitude Reporting Facility
EDT Latitude Longitude Course Direction KTS MPH feet Rate Location/Type
12:48PM 32.1664 -90.0678 197° South 265 305 6,400  Level Memphis Center
12:49PM 32.0933 -90.0875 193° South 270 311 9,400 1,800 Climbing Memphis Center
12:50PM 32.0225 -90.1025 190° South 270 311 10,000 300 Climbing Memphis Center
12:51PM 31.9389 -90.1200 190° South 283 326 10,000 240 Level Memphis Center
12:52PM 31.8988 -90.1090 190° South  Level Estimated
12:52PM 31.8556 -90.1397 191° South 297 342 10,500  Level Memphis Center
12:53PM 31.8328 -90.1320 197° South  Level FlightAware Approximate
12:53PM 31.7439 -90.1606 189° South 296 341 13,500  Level Houston Center
12:54PM 31.6594 -90.1786 190° South 307 353 15,500 1,200 Climbing Houston Center
12:55PM 31.5714 -90.1975 190° South 318 366 16,000 240 Climbing Houston Center
12:56PM 31.4817 -90.2178 191° South 329 379 16,000  Level Houston Center
12:57PM 31.3742 -90.2428 191° South 328 377 16,000  Level Houston Center
12:59PM 31.2856 -90.2558 187° South 325 374 16,000  Level Houston Center
01:00PM 31.1967 -90.2492 176° South 320 368 16,000  Level Houston Center
01:01PM 31.1072 -90.2425 176° South 323 372 16,000  Level Houston Center
01:02PM 31.0175 -90.2367 177° South 322 371 16,000 -60 Level Houston Center
01:03PM 30.9275 -90.2303 177° South 323 372 15,900 -60 Descending Houston Center
01:03PM 30.8444 -90.2236 176° South 322 371 15,900 -840 Level Houston Center
01:05PM 30.7339 -90.2153 176° South 318 366 14,300 -1,380 Descending Houston Center
01:05PM 30.6686 -90.2114 177° South 311 358 13,200 -1,500 Descending Houston Center
01:06PM 30.5856 -90.2367 195° South 312 359 11,700 -1,560 Descending Houston Center
01:07PM 30.5011 -90.2761 202° Southwest 306 352 10,100 -1,560 Descending Houston Center
01:08PM 30.4414 -90.3050 203° Southwest 303 349 8,900 -1,380 Descending Houston Center
01:09PM 30.4122 -90.3203 204° Southwest 303 349 8,300 -1,680 Descending Houston Center
01:10PM 30.3269 -90.3614 203° Southwest 287 330 6,300 -2,040 Descending Houston Center
01:11PM 30.2603 -90.3950 204° Southwest 275 316 4,200 -1,200 Descending Houston Center
01:12PM 30.2042 -90.4247 205° Southwest 243 280 3,900 -780 Descending Houston Center
01:13PM 30.1508 -90.4539 205° Southwest 222 255 2,700 -1,020 Descending Houston Center
01:14PM 30.0950 -90.4817 203° Southwest 219 252 1,900 -360 Descending Houston Center
01:15PM 30.0425 -90.4531 155° Southeast 149 171 2,000  Climbing Houston Center
01:16PM 30.0308 -90.4247 115° Southeast 169 194 1,900 -360 Descending Houston Center
01:17PM 30.0197 -90.3725 104° East 151 174 1,400 -540 Descending Houston Center
01:18PM 30.0106 -90.3372 107° East 133 153 900 -540 Descending Houston Center
01:19PM 30.0025 -90.2994 104° East 123 142 400 -540 Descending Houston Center